Flight Track Log - Related Links

Times and Time Zones

All times are in EDT time to prevent confusion due to time zone crossing. See the AAL733 flight status page for this flight to view local times or setup timezone preferences in your user account.


Time Position Orientation Groundspeed Altitude Reporting Facility
EDT Latitude Longitude Course Direction KTS MPH feet Rate Location/Type
Wed 12:45:15 PM 33.9500 -118.3773 250° West  Level FlightAware Approximate
Wed 12:46:00 PM 33.9333 -118.4333 247° West 190 219 1,500  Level Southern California TRACON
Wed 12:46:55 PM 33.9056 -118.5114 211° Southwest 211 243 3,400 2,557 Climbing Los Angeles Center
Wed 12:47:55 PM 33.8483 -118.5522 105° East 266 306 6,400 3,100 Climbing Los Angeles Center
Wed 12:48:55 PM 33.8292 -118.4667 17° North 214 246 9,600 2,900 Climbing Los Angeles Center
Wed 12:49:55 PM 33.8967 -118.4411 32° Northeast 177 204 12,200 2,200 Climbing Los Angeles Center
Wed 12:50:55 PM 33.9664 -118.3878 58° Northeast 223 257 14,000 1,950 Climbing Los Angeles Center
Wed 12:51:55 PM 34.0206 -118.2842 55° Northeast 296 341 16,100 2,200 Climbing Los Angeles Center
Wed 12:52:55 PM 34.0808 -118.1803 57° Northeast 341 392 18,400 2,250 Climbing Los Angeles Center
Wed 12:53:55 PM 34.1389 -118.0739 55° Northeast 404 465 20,600 2,000 Climbing Los Angeles Center
Wed 12:54:55 PM 34.2097 -117.9497 57° Northeast 410 472 22,400 1,750 Climbing Los Angeles Center
Wed 12:55:55 PM 34.2653 -117.8456 56° Northeast 410 472 24,100 1,500 Climbing Los Angeles Center
Wed 12:56:55 PM 34.3361 -117.7186 57° Northeast 410 472 25,400 1,100 Climbing Los Angeles Center
Wed 12:57:55 PM 34.4044 -117.5917 57° Northeast 424 488 26,300 800 Climbing Los Angeles Center
Wed 12:58:55 PM 34.4789 -117.4542 56° Northeast 451 519 27,000 350 Climbing Los Angeles Center
Wed 12:59:55 PM 34.5533 -117.3217 56° Northeast 472 543 27,000  Level Los Angeles Center
Wed 01:00:55 PM 34.6278 -117.1867 56° Northeast 477 549 27,000  Level Los Angeles Center
Wed 01:01:55 PM 34.6956 -117.0661 57° Northeast 483 556 27,000  Level Los Angeles Center
Wed 01:02:56 PM 34.7675 -116.9306 56° Northeast 478 550 27,000  Level Los Angeles Center
Wed 01:03:55 PM 34.8433 -116.7919 56° Northeast 478 550 27,000  Level Los Angeles Center
Wed 01:04:55 PM 34.9172 -116.6583 52° Northeast 478 550 27,000 -800 Level Los Angeles Center
Wed 01:05:55 PM 34.9989 -116.5319 46° Northeast 478 550 25,400 -1,500 Descending Los Angeles Center
Wed 01:06:55 PM 35.0911 -116.4133 45° Northeast 473 544 24,000 -950 Descending Los Angeles Center
Wed 01:07:55 PM 35.1875 -116.2967 46° Northeast 473 544 23,500 -1,900 Descending Los Angeles Center
Wed 01:08:55 PM 35.2772 -116.1822 45° Northeast 473 544 20,200 -3,400 Descending Los Angeles Center
Wed 01:09:55 PM 35.3608 -116.0781 45° Northeast 450 518 16,700 -3,250 Descending Los Angeles Center
Wed 01:10:55 PM 35.4419 -115.9786 47° Northeast 422 486 13,700 -1,850 Descending Los Angeles Center
Wed 01:11:55 PM 35.5275 -115.8661 45° Northeast 405 466 13,000 -350 Descending Los Angeles Center
Wed 01:12:55 PM 35.5961 -115.7817 47° Northeast 398 458 13,000  Level Los Angeles Center
Wed 01:13:55 PM 35.6647 -115.6917 44° Northeast 374 430 13,000 -500 Level Los Angeles Center
Wed 01:14:55 PM 35.7269 -115.6172 29° Northeast 336 387 12,000 -500 Descending Los Angeles Center
Wed 01:15:55 PM 35.7872 -115.5758 360° North 258 297 12,000  Level Los Angeles Center
Wed 01:16:55 PM 35.8603 -115.5756 North 241 277 12,000  Level Los Angeles Center
Wed 01:17:55 PM 35.9311 -115.5672 North 246 283 12,000  Level Los Angeles Center
Wed 01:18:55 PM 35.9936 -115.5592 74° East 251 289 12,000 -450 Level Los Angeles Center
Wed 01:19:55 PM 36.0142 -115.4717 77° East 209 241 11,100 -500 Descending Los Angeles Center
Wed 01:20:55 PM 36.0303 -115.3817 94° East 230 265 11,000 -950 Descending Los Angeles Center
Wed 01:21:55 PM 36.0256 -115.2892 95° East 243 280 9,200 -1,000 Descending Los Angeles Center
Wed 01:22:55 PM 36.0186 -115.1994 96° East 253 291 9,000 -550 Descending Los Angeles Center
Wed 01:23:55 PM 36.0117 -115.1122 94° East 258 297 8,100 -750 Descending Los Angeles Center
Wed 01:24:55 PM 36.0067 -115.0250 88° East 253 291 7,500 -750 Descending Los Angeles Center
Wed 01:25:55 PM 36.0083 -114.9556 88° East 231 266 6,600 -900 Descending Los Angeles Center

Login

Don't have an account? Register now (free) for customized features, flight alerts, and more!